»·PEaware :: N522PM KVNY-KSNA

N522PM :: KVNY-KSNA

FLIGHT INFORMATION

Flight Status: Arrived
Operator: Privately registered:
United States
More flights under this callsign
Pilot: Bruce B. (6887)
Aircraft: Unknown
(LEG2)
More flights by this aircraft type
Origin: KVNY Van Nuys
United States
Destination: KSNA John Wayne-Orange Co
United States
More flights between these airports :: More routes between these airports
Route: +ADAMM3 ADAMM V186 BAYJY V363 POXKU V8 SLI
File this flight plan on PilotEdge
Remarks: TEC Route BURP20
Altitude:
(Current/Filed)
5,000ft
Speed:
(Current/Filed)
230kts
Departed: 09-Feb-20 04:07 PM
Arrived: 09-Feb-20 04:41 PM
Distance/Time
Traveled:
45nm/0:34
Distance/Time
To Go:
Arrived

Flight Plot

Page will automatically refresh every two minutes.

Flight plan parsing failed; only flown route is shown


Map Options




Map Legend


Flown Route
Filed Route
Departure Airport
Arrival Airport
Navaid (VOR, NDB)
Fix

Horizontal Profiles

Position Reports

Time Latitude Longitude Heading Altitude Ground
Speed
09-Feb-20 15:34 34.218168 -118.496395 173 805ft 0kts
09-Feb-20 15:35 34.218167 -118.496395 173 805ft 0kts
09-Feb-20 15:36 34.218166 -118.496395 173 805ft 0kts
09-Feb-20 15:37 34.218165 -118.496395 173 805ft 0kts
09-Feb-20 15:38 34.218164 -118.496395 173 805ft 0kts
09-Feb-20 15:39 34.218163 -118.496395 173 805ft 0kts
09-Feb-20 15:40 34.218162 -118.496394 173 805ft 0kts
09-Feb-20 15:41 34.218161 -118.496394 173 805ft 0kts
09-Feb-20 15:42 34.218160 -118.496394 173 805ft 0kts
09-Feb-20 15:43 34.218159 -118.496394 173 805ft 0kts
09-Feb-20 15:44 34.218157 -118.496394 173 805ft 0kts
09-Feb-20 15:45 34.218156 -118.496394 173 805ft 0kts
09-Feb-20 15:46 34.218155 -118.496393 173 805ft 0kts
09-Feb-20 15:47 34.218153 -118.496393 173 805ft 0kts
09-Feb-20 15:48 34.218152 -118.496393 173 805ft 0kts
09-Feb-20 15:49 34.218151 -118.496393 173 805ft 0kts
09-Feb-20 15:50 34.217758 -118.495803 109 805ft 9kts
09-Feb-20 15:51 34.217371 -118.492514 47 805ft 7kts
09-Feb-20 15:52 34.218764 -118.492154 86 805ft 0kts
09-Feb-20 15:53 34.218764 -118.492152 86 805ft 0kts
09-Feb-20 15:54 34.218764 -118.492151 86 805ft 0kts
09-Feb-20 15:55 34.218764 -118.492150 86 805ft 0kts
09-Feb-20 15:56 34.218764 -118.492149 86 805ft 0kts
09-Feb-20 15:57 34.218764 -118.492149 86 805ft 0kts
09-Feb-20 15:58 34.218764 -118.492149 86 805ft 0kts
09-Feb-20 15:59 34.218764 -118.492149 86 805ft 0kts
09-Feb-20 16:00 34.218764 -118.492149 86 805ft 0kts
09-Feb-20 16:01 34.218764 -118.492149 86 805ft 0kts
09-Feb-20 16:02 34.218764 -118.492149 86 805ft 0kts
09-Feb-20 16:03 34.218764 -118.492149 86 805ft 0kts
09-Feb-20 16:04 34.218764 -118.492149 86 805ft 0kts
09-Feb-20 16:05 34.218573 -118.491201 172 805ft 7kts
09-Feb-20 16:06 34.191551 -118.490758 175 1692ft 133kts
09-Feb-20 16:07 34.164185 -118.464317 113 3423ft 140kts
09-Feb-20 16:08 34.159934 -118.415988 92 4773ft 154kts
09-Feb-20 16:09 34.157829 -118.357347 91 5016ft 190kts
09-Feb-20 16:10 34.155516 -118.291308 100 5013ft 201kts
09-Feb-20 16:11 34.138469 -118.226372 107 5015ft 204kts
09-Feb-20 16:12 34.120519 -118.161246 107 5017ft 204kts
09-Feb-20 16:13 34.102666 -118.096076 107 5017ft 204kts
09-Feb-20 16:14 34.083530 -118.031662 109 5018ft 204kts
09-Feb-20 16:15 34.063639 -117.967461 108 5009ft 205kts
09-Feb-20 16:16 34.043404 -117.901727 107 5019ft 211kts
09-Feb-20 16:17 34.022774 -117.834949 107 5018ft 213kts
09-Feb-20 16:18 33.983259 -117.785028 175 4406ft 234kts
09-Feb-20 16:19 33.921791 -117.784354 175 4012ft 203kts
09-Feb-20 16:20 33.868622 -117.784460 193 4009ft 185kts
09-Feb-20 16:21 33.832183 -117.825449 223 4023ft 183kts
09-Feb-20 16:22 33.790224 -117.872705 222 4022ft 227kts
09-Feb-20 16:23 33.741286 -117.927463 222 3397ft 254kts
09-Feb-20 16:24 33.692902 -117.981643 222 2996ft 226kts
09-Feb-20 16:25 33.645776 -118.034140 222 2995ft 235kts
09-Feb-20 16:26 33.601574 -118.083083 222 2982ft 193kts
09-Feb-20 16:27 33.564056 -118.124236 222 2983ft 174kts
09-Feb-20 16:28 33.527939 -118.163575 222 2983ft 179kts
09-Feb-20 16:29 33.490095 -118.164351 101 2993ft 171kts
09-Feb-20 16:30 33.488271 -118.106981 79 2982ft 173kts
09-Feb-20 16:31 33.495066 -118.055981 79 2982ft 141kts
09-Feb-20 16:32 33.500434 -118.011013 79 2990ft 133kts
09-Feb-20 16:33 33.513041 -117.971726 26 2836ft 130kts
09-Feb-20 16:34 33.545011 -117.951442 28 1731ft 125kts
09-Feb-20 16:35 33.571029 -117.935130 27 1599ft 100kts
09-Feb-20 16:36 33.597140 -117.918460 28 1593ft 107kts
09-Feb-20 16:37 33.624780 -117.901050 27 938ft 98kts
09-Feb-20 16:38 33.647540 -117.886799 25 537ft 93kts
09-Feb-20 16:39 33.669655 -117.872674 27 71ft 72kts
09-Feb-20 16:40 33.677303 -117.866662 114 59ft 2kts
09-Feb-20 16:41 33.675035 -117.866509 208 59ft 21kts
09-Feb-20 16:42 33.672239 -117.866655 202 59ft 2kts
09-Feb-20 16:43 33.672228 -117.866661 206 59ft 0kts

Navigation Log

Ident Type
Flight plan parsing failed, navigation log unavailable